CMA CGM Aristote — MRPN4 — position and weather

sailwx.info

Track history (hours):
 
Tides and Currents Weather Stations Pressure Air Temp Water Temp Dewpoint Dewpoint Depression Visibility Wind Speed Wind Dir Waves Ship Positions

CMA CGM Aristote

Last reported at 2014-Oct-30 13:33 UTC. Time now 2014-Oct-30 14:34 UTC.
Position N 50°03' W 002°26'.

Length 170 m; draft 9.2 m.

Type: Ship (hazmat cat A). MMSI: 235054581.

Date/timePositionNaut miles runAvg speedWind from/ knotsBaromVisibWave heightAir tempDewpointWater temp
2014-Oct-30 13:33N 50°03' W 002°26'1616.4
2014-Oct-30 12:33N 50°03' W 002°00'5717.0
2014-Oct-30 09:12N 49°42' W 000°38'1219.2
2014-Oct-30 08:33N 49°36' W 000°21'1515.6
2014-Oct-30 07:34N 49°30' E 000°01'6 6.0
2014-Oct-30 06:33N 49°29' E 000°10'0 0.0
2014-Oct-30 05:33N 49°29' E 000°10'0 0.0
2014-Oct-30 04:33N 49°29' E 000°10'0 0.0
2014-Oct-30 03:33N 49°29' E 000°10'0 0.0
2014-Oct-30 02:33N 49°29' E 000°10'0 0.0
2014-Oct-30 01:30N 49°29' E 000°10'0 0.0
2014-Oct-30 00:33N 49°29' E 000°10'0 0.0
2014-Oct-29 23:33N 49°29' E 000°10'0 0.0
2014-Oct-29 22:33N 49°29' E 000°10'0 0.0
2014-Oct-29 21:33N 49°29' E 000°10'0 0.0
2014-Oct-29 20:27N 49°29' E 000°10'0 0.0
2014-Oct-29 19:33N 49°29' E 000°10'0 0.0
2014-Oct-29 18:33N 49°29' E 000°10'0 0.0
2014-Oct-29 17:33N 49°29' E 000°10'0 0.0
2014-Oct-29 16:33N 49°29' E 000°10'0 0.0
2014-Oct-29 15:33N 49°29' E 000°10'0 0.0
2014-Oct-29 14:30N 49°29' E 000°10'0 0.0
2014-Oct-29 13:33N 49°29' E 000°10'0 0.0
2014-Oct-29 12:33N 49°29' E 000°10'0 0.0
2014-Oct-29 11:33N 49°29' E 000°10'0 0.0
2014-Oct-29 10:33N 49°29' E 000°10'0 0.0
2014-Oct-29 09:33N 49°29' E 000°10'0 0.0
2014-Oct-29 08:33N 49°29' E 000°10'0 0.0
2014-Oct-29 07:33N 49°29' E 000°10'0 0.0
2014-Oct-29 06:30N 49°29' E 000°10'0 0.0
2014-Oct-29 05:33N 49°29' E 000°10'0 0.0
2014-Oct-29 04:30N 49°29' E 000°10'0 0.0
2014-Oct-29 03:30N 49°29' E 000°10'0 0.1
2014-Oct-29 02:34N 49°29' E 000°10'6 6.4
2014-Oct-29 01:34N 49°30' E 000°00'8 8.1
2014-Oct-29 00:34N 49°33' W 000°11'6115.2
2014-Oct-28 20:34N 50°31' E 000°19'2019.6
2014-Oct-28 19:34N 50°40' E 000°46'2019.6
2014-Oct-28 18:34N 50°54' E 001°09'1818.5
2014-Oct-28 17:34N 51°05' E 001°32'1615.9
2014-Oct-28 16:33N 51°21' E 001°37'1212.2
2014-Oct-28 15:33N 51°28' E 001°22'1414.0
2014-Oct-28 14:33N 51°29' E 000°59'1413.7
2014-Oct-28 13:33N 51°30' E 000°37'9 9.4
2014-Oct-28 12:34N 51°27' E 000°23'2 1.5
2014-Oct-28 11:34N 51°27' E 000°21'1 0.5
2014-Oct-28 10:34N 51°28' E 000°20'0 0.0
2014-Oct-28 09:34N 51°28' E 000°20'0 0.0
2014-Oct-28 08:34N 51°28' E 000°20'0 0.0
2014-Oct-28 07:34N 51°28' E 000°20'0 0.0
2014-Oct-28 06:34N 51°28' E 000°20'0 0.0
2014-Oct-28 05:34N 51°28' E 000°20'0 0.2
2014-Oct-28 04:34N 51°28' E 000°20'0 0.0
2014-Oct-28 03:34N 51°28' E 000°20'0 0.0
2014-Oct-28 02:34N 51°28' E 000°20'0 0.0
2014-Oct-28 01:34N 51°28' E 000°20'0 0.0
2014-Oct-28 00:34N 51°28' E 000°20'0 0.0
2014-Oct-27 23:34N 51°28' E 000°20'0 0.0
2014-Oct-27 22:34N 51°28' E 000°20'0 0.0
2014-Oct-27 21:34N 51°28' E 000°20'0 0.0
2014-Oct-27 20:34N 51°28' E 000°20'0 0.0
2014-Oct-27 19:33N 51°28' E 000°20'0 0.0
2014-Oct-27 18:34N 51°28' E 000°20'0 0.0
2014-Oct-27 17:34N 51°28' E 000°20'0 0.0
2014-Oct-27 16:34N 51°28' E 000°20'0 0.0
2014-Oct-27 15:34N 51°28' E 000°20'0 0.0
2014-Oct-27 14:34N 51°28' E 000°20'0 0.0
2014-Oct-27 13:34N 51°28' E 000°20'0 0.3
2014-Oct-27 12:34N 51°27' E 000°20'4 4.0
2014-Oct-27 11:33N 51°28' E 000°27'1111.1
2014-Oct-27 10:34N 51°30' E 000°44'1413.8
2014-Oct-27 09:34N 51°32' E 001°06'1211.8
2014-Oct-27 08:33N 51°34' E 001°25'9 8.9
2014-Oct-27 07:34N 51°26' E 001°30'6 6.0
2014-Oct-27 06:34N 51°30' E 001°38'8 8.2
2014-Oct-27 05:34N 51°34' E 001°49'1010.3
2014-Oct-27 04:33N 51°40' E 002°03'1010.0
2014-Oct-27 03:32N 51°47' E 002°15'1110.3
2014-Oct-27 02:29N 51°54' E 002°27'1010.8
2014-Oct-27 01:33N 51°60' E 002°41'1410.9
2014-Oct-27 00:17N 52°03' E 003°03'911.3
2014-Oct-26 23:29N 52°03' E 003°18'1111.7
2014-Oct-26 22:33N 52°04' E 003°35'1111.2
2014-Oct-26 21:33N 52°03' E 003°53'1110.7
2014-Oct-26 20:34N 51°58' E 004°09'1010.2
2014-Oct-26 19:34N 51°54' E 004°24'1 0.8
2014-Oct-26 18:31N 51°53' E 004°24'0 0.0
2014-Oct-26 17:31N 51°53' E 004°24'0 0.0
2014-Oct-26 16:31N 51°53' E 004°24'0 0.0
2014-Oct-26 15:31N 51°53' E 004°24'0 0.0
2014-Oct-26 14:31N 51°53' E 004°24'0 0.0
2014-Oct-26 13:31N 51°53' E 004°24'0 0.0
2014-Oct-26 12:31N 51°53' E 004°24'0 0.0
2014-Oct-26 11:31N 51°53' E 004°24'0 0.0
2014-Oct-26 10:31N 51°53' E 004°24'0 0.0
2014-Oct-26 09:31N 51°53' E 004°24'0 0.0
2014-Oct-26 08:31N 51°53' E 004°24'0 0.0
2014-Oct-26 07:31N 51°53' E 004°24'0 0.0
2014-Oct-26 06:31N 51°53' E 004°24'0 0.0
2014-Oct-26 05:31N 51°53' E 004°24'0 0.0
2014-Oct-26 04:31N 51°53' E 004°24'0 0.0
2014-Oct-26 03:31N 51°53' E 004°24'0 0.0
2014-Oct-26 02:31N 51°53' E 004°24'0 0.0
2014-Oct-26 01:31N 51°53' E 004°24'0 0.0
2014-Oct-26 00:31N 51°53' E 004°24'0 0.0
2014-Oct-25 23:31N 51°53' E 004°24'0 0.0
2014-Oct-25 22:31N 51°53' E 004°24'0 0.0
2014-Oct-25 21:31N 51°53' E 004°24'0 0.0
2014-Oct-25 20:31N 51°53' E 004°24'0 0.0
2014-Oct-25 19:31N 51°53' E 004°24'0 0.0
2014-Oct-25 18:31N 51°53' E 004°24'0 0.0
2014-Oct-25 17:31N 51°53' E 004°24'0 0.0
2014-Oct-25 16:31N 51°53' E 004°24'0 0.0
2014-Oct-25 15:31N 51°53' E 004°24'0 0.0
2014-Oct-25 14:31N 51°53' E 004°24'0 0.0
2014-Oct-25 13:31N 51°53' E 004°24'0 0.0
2014-Oct-25 12:31N 51°53' E 004°24'0 0.0
2014-Oct-25 11:31N 51°53' E 004°24'0 0.0
2014-Oct-25 10:31N 51°53' E 004°24'0 0.0
2014-Oct-25 09:31N 51°53' E 004°24'0 0.0
2014-Oct-25 08:31N 51°53' E 004°24'0 0.0
2014-Oct-25 07:31N 51°53' E 004°24'0 0.0
2014-Oct-25 06:31N 51°53' E 004°24'0 0.0
2014-Oct-25 05:31N 51°53' E 004°24'0 0.0
2014-Oct-25 04:31N 51°53' E 004°24'0 0.0
2014-Oct-25 03:31N 51°53' E 004°24'0 0.0
2014-Oct-25 02:31N 51°53' E 004°24'0 0.0
2014-Oct-25 01:31N 51°53' E 004°24'0 0.0
2014-Oct-25 00:31N 51°53' E 004°24'0 0.0
2014-Oct-24 23:31N 51°53' E 004°24'0 0.0
2014-Oct-24 22:31N 51°53' E 004°24'0 0.0
2014-Oct-24 21:31N 51°53' E 004°24'0 0.0
2014-Oct-24 20:31N 51°53' E 004°24'0 0.0
2014-Oct-24 19:31N 51°53' E 004°24'0 0.0
2014-Oct-24 18:31N 51°53' E 004°24'0 0.0
2014-Oct-24 17:31N 51°53' E 004°24'0 0.0
2014-Oct-24 16:31N 51°53' E 004°24'0 0.0
2014-Oct-24 15:31N 51°53' E 004°24'0 0.0
2014-Oct-24 14:31N 51°53' E 004°24'0 0.0
2014-Oct-24 13:31N 51°53' E 004°24'0 0.0
2014-Oct-24 12:31N 51°53' E 004°24'1 1.3
2014-Oct-24 11:34N 51°54' E 004°23'7 7.1
2014-Oct-24 10:33N 51°56' E 004°12'10 9.9
2014-Oct-24 09:33N 52°00' E 003°57'10 9.5
2014-Oct-24 08:33N 51°58' E 003°42'1413.8
2014-Oct-24 07:33N 51°55' E 003°20'4113.8
2014-Oct-24 04:33N 51°34' E 002°22'1514.8
2014-Oct-24 03:33N 51°22' E 002°09'1514.8
2014-Oct-24 02:33N 51°11' E 001°54'1919.0
2014-Oct-24 01:34N 50°58' E 001°32'1918.6
2014-Oct-24 00:33N 50°41' E 001°17'1917.4
2014-Oct-23 23:29N 50°30' E 000°54'1617.7
2014-Oct-23 22:33N 50°27' E 000°29'33616.8
2014-Oct-23 02:33N 47°23' W 006°40'46917.3
2014-Oct-21 23:22N 39°55' W 009°51'1518.1
2014-Oct-21 22:33N 39°40' W 009°51'1818.0
2014-Oct-21 21:32N 39°22' W 009°52'1818.2
2014-Oct-21 20:34N 39°04' W 009°52'1818.1
2014-Oct-21 19:33N 38°46' W 009°52'1818.0
2014-Oct-21 18:33N 38°28' W 009°51'1818.2
2014-Oct-21 17:33N 38°10' W 009°51'1817.6
2014-Oct-21 16:33N 37°53' W 009°45'1818.4
2014-Oct-21 15:33N 37°37' W 009°34'1818.0
2014-Oct-21 14:33N 37°19' W 009°28'1817.8
2014-Oct-21 13:33N 37°02' W 009°22'1716.9
2014-Oct-21 12:33N 36°47' W 009°12'1917.4
2014-Oct-21 11:28N 36°40' W 008°51'1617.7
2014-Oct-21 10:33N 36°34' W 008°32'1817.6
2014-Oct-21 09:33N 36°28' W 008°11'1717.2
2014-Oct-21 08:33N 36°23' W 007°51'1717.3
2014-Oct-21 07:33N 36°18' W 007°30'10217.1
2014-Oct-21 01:33N 36°01' W 005°25'7 2.3
2014-Oct-20 22:26N 36°08' W 005°25'0 0.0
2014-Oct-20 21:32N 36°08' W 005°25'0 0.0
2014-Oct-20 18:05N 36°08' W 005°25'1 1.8
2014-Oct-20 17:33N 36°08' W 005°24'5 4.8
2014-Oct-20 16:34N 36°04' W 005°22'1110.7
2014-Oct-20 15:33N 35°57' W 005°32'  
Track history (hours):
 
Tides and Currents Weather Stations Pressure Air Temp Water Temp Dewpoint Dewpoint Depression Visibility Wind Speed Wind Dir Waves Ship Positions

CMA CGM Aristote

Last reported at 2014-Oct-30 13:33 UTC. Time now 2014-Oct-30 14:34 UTC.
Position N 50°03' W 002°26'.

Length 170 m; draft 9.2 m.

Type: Ship (hazmat cat A). MMSI: 235054581.

Date/timePositionNaut miles runAvg speedWind from/ knotsBaromVisibWave heightAir tempDewpointWater temp
2014-Oct-30 13:33N 50°03' W 002°26'1616.4
2014-Oct-30 12:33N 50°03' W 002°00'5717.0
2014-Oct-30 09:12N 49°42' W 000°38'1219.2
2014-Oct-30 08:33N 49°36' W 000°21'1515.6
2014-Oct-30 07:34N 49°30' E 000°01'6 6.0
2014-Oct-30 06:33N 49°29' E 000°10'0 0.0
2014-Oct-30 05:33N 49°29' E 000°10'0 0.0
2014-Oct-30 04:33N 49°29' E 000°10'0 0.0
2014-Oct-30 03:33N 49°29' E 000°10'0 0.0
2014-Oct-30 02:33N 49°29' E 000°10'0 0.0
2014-Oct-30 01:30N 49°29' E 000°10'0 0.0
2014-Oct-30 00:33N 49°29' E 000°10'0 0.0
2014-Oct-29 23:33N 49°29' E 000°10'0 0.0
2014-Oct-29 22:33N 49°29' E 000°10'0 0.0
2014-Oct-29 21:33N 49°29' E 000°10'0 0.0
2014-Oct-29 20:27N 49°29' E 000°10'0 0.0
2014-Oct-29 19:33N 49°29' E 000°10'0 0.0
2014-Oct-29 18:33N 49°29' E 000°10'0 0.0
2014-Oct-29 17:33N 49°29' E 000°10'0 0.0
2014-Oct-29 16:33N 49°29' E 000°10'0 0.0
2014-Oct-29 15:33N 49°29' E 000°10'0 0.0
2014-Oct-29 14:30N 49°29' E 000°10'0 0.0
2014-Oct-29 13:33N 49°29' E 000°10'0 0.0
2014-Oct-29 12:33N 49°29' E 000°10'0 0.0
2014-Oct-29 11:33N 49°29' E 000°10'0 0.0
2014-Oct-29 10:33N 49°29' E 000°10'0 0.0
2014-Oct-29 09:33N 49°29' E 000°10'0 0.0
2014-Oct-29 08:33N 49°29' E 000°10'0 0.0
2014-Oct-29 07:33N 49°29' E 000°10'0 0.0
2014-Oct-29 06:30N 49°29' E 000°10'0 0.0
2014-Oct-29 05:33N 49°29' E 000°10'0 0.0
2014-Oct-29 04:30N 49°29' E 000°10'0 0.0
2014-Oct-29 03:30N 49°29' E 000°10'0 0.1
2014-Oct-29 02:34N 49°29' E 000°10'6 6.4
2014-Oct-29 01:34N 49°30' E 000°00'8 8.1
2014-Oct-29 00:34N 49°33' W 000°11'6115.2
2014-Oct-28 20:34N 50°31' E 000°19'2019.6
2014-Oct-28 19:34N 50°40' E 000°46'2019.6
2014-Oct-28 18:34N 50°54' E 001°09'1818.5
2014-Oct-28 17:34N 51°05' E 001°32'1615.9
2014-Oct-28 16:33N 51°21' E 001°37'1212.2
2014-Oct-28 15:33N 51°28' E 001°22'1414.0
2014-Oct-28 14:33N 51°29' E 000°59'1413.7
2014-Oct-28 13:33N 51°30' E 000°37'9 9.4
2014-Oct-28 12:34N 51°27' E 000°23'2 1.5
2014-Oct-28 11:34N 51°27' E 000°21'1 0.5
2014-Oct-28 10:34N 51°28' E 000°20'0 0.0
2014-Oct-28 09:34N 51°28' E 000°20'0 0.0
2014-Oct-28 08:34N 51°28' E 000°20'0 0.0
2014-Oct-28 07:34N 51°28' E 000°20'0 0.0
2014-Oct-28 06:34N 51°28' E 000°20'0 0.0
2014-Oct-28 05:34N 51°28' E 000°20'0 0.2
2014-Oct-28 04:34N 51°28' E 000°20'0 0.0
2014-Oct-28 03:34N 51°28' E 000°20'0 0.0
2014-Oct-28 02:34N 51°28' E 000°20'0 0.0
2014-Oct-28 01:34N 51°28' E 000°20'0 0.0
2014-Oct-28 00:34N 51°28' E 000°20'0 0.0
2014-Oct-27 23:34N 51°28' E 000°20'0 0.0
2014-Oct-27 22:34N 51°28' E 000°20'0 0.0
2014-Oct-27 21:34N 51°28' E 000°20'0 0.0
2014-Oct-27 20:34N 51°28' E 000°20'0 0.0
2014-Oct-27 19:33N 51°28' E 000°20'0 0.0
2014-Oct-27 18:34N 51°28' E 000°20'0 0.0
2014-Oct-27 17:34N 51°28' E 000°20'0 0.0
2014-Oct-27 16:34N 51°28' E 000°20'0 0.0
2014-Oct-27 15:34N 51°28' E 000°20'0 0.0
2014-Oct-27 14:34N 51°28' E 000°20'0 0.0
2014-Oct-27 13:34N 51°28' E 000°20'0 0.3
2014-Oct-27 12:34N 51°27' E 000°20'4 4.0
2014-Oct-27 11:33N 51°28' E 000°27'1111.1
2014-Oct-27 10:34N 51°30' E 000°44'1413.8
2014-Oct-27 09:34N 51°32' E 001°06'1211.8
2014-Oct-27 08:33N 51°34' E 001°25'9 8.9
2014-Oct-27 07:34N 51°26' E 001°30'6 6.0
2014-Oct-27 06:34N 51°30' E 001°38'8 8.2
2014-Oct-27 05:34N 51°34' E 001°49'1010.3
2014-Oct-27 04:33N 51°40' E 002°03'1010.0
2014-Oct-27 03:32N 51°47' E 002°15'1110.3
2014-Oct-27 02:29N 51°54' E 002°27'1010.8
2014-Oct-27 01:33N 51°60' E 002°41'1410.9
2014-Oct-27 00:17N 52°03' E 003°03'911.3
2014-Oct-26 23:29N 52°03' E 003°18'1111.7
2014-Oct-26 22:33N 52°04' E 003°35'1111.2
2014-Oct-26 21:33N 52°03' E 003°53'1110.7
2014-Oct-26 20:34N 51°58' E 004°09'1010.2
2014-Oct-26 19:34N 51°54' E 004°24'1 0.8
2014-Oct-26 18:31N 51°53' E 004°24'0 0.0
2014-Oct-26 17:31N 51°53' E 004°24'0 0.0
2014-Oct-26 16:31N 51°53' E 004°24'0 0.0
2014-Oct-26 15:31N 51°53' E 004°24'0 0.0
2014-Oct-26 14:31N 51°53' E 004°24'0 0.0
2014-Oct-26 13:31N 51°53' E 004°24'0 0.0
2014-Oct-26 12:31N 51°53' E 004°24'0 0.0
2014-Oct-26 11:31N 51°53' E 004°24'0 0.0
2014-Oct-26 10:31N 51°53' E 004°24'0 0.0
2014-Oct-26 09:31N 51°53' E 004°24'0 0.0
2014-Oct-26 08:31N 51°53' E 004°24'0 0.0
2014-Oct-26 07:31N 51°53' E 004°24'0 0.0
2014-Oct-26 06:31N 51°53' E 004°24'0 0.0
2014-Oct-26 05:31N 51°53' E 004°24'0 0.0
2014-Oct-26 04:31N 51°53' E 004°24'0 0.0
2014-Oct-26 03:31N 51°53' E 004°24'0 0.0
2014-Oct-26 02:31N 51°53' E 004°24'0 0.0
2014-Oct-26 01:31N 51°53' E 004°24'0 0.0
2014-Oct-26 00:31N 51°53' E 004°24'0 0.0
2014-Oct-25 23:31N 51°53' E 004°24'0 0.0
2014-Oct-25 22:31N 51°53' E 004°24'0 0.0
2014-Oct-25 21:31N 51°53' E 004°24'0 0.0
2014-Oct-25 20:31N 51°53' E 004°24'0 0.0
2014-Oct-25 19:31N 51°53' E 004°24'0 0.0
2014-Oct-25 18:31N 51°53' E 004°24'0 0.0
2014-Oct-25 17:31N 51°53' E 004°24'0 0.0
2014-Oct-25 16:31N 51°53' E 004°24'0 0.0
2014-Oct-25 15:31N 51°53' E 004°24'0 0.0
2014-Oct-25 14:31N 51°53' E 004°24'0 0.0
2014-Oct-25 13:31N 51°53' E 004°24'0 0.0
2014-Oct-25 12:31N 51°53' E 004°24'0 0.0
2014-Oct-25 11:31N 51°53' E 004°24'0 0.0
2014-Oct-25 10:31N 51°53' E 004°24'0 0.0
2014-Oct-25 09:31N 51°53' E 004°24'0 0.0
2014-Oct-25 08:31N 51°53' E 004°24'0 0.0
2014-Oct-25 07:31N 51°53' E 004°24'0 0.0
2014-Oct-25 06:31N 51°53' E 004°24'0 0.0
2014-Oct-25 05:31N 51°53' E 004°24'0 0.0
2014-Oct-25 04:31N 51°53' E 004°24'0 0.0
2014-Oct-25 03:31N 51°53' E 004°24'0 0.0
2014-Oct-25 02:31N 51°53' E 004°24'0 0.0
2014-Oct-25 01:31N 51°53' E 004°24'0 0.0
2014-Oct-25 00:31N 51°53' E 004°24'0 0.0
2014-Oct-24 23:31N 51°53' E 004°24'0 0.0
2014-Oct-24 22:31N 51°53' E 004°24'0 0.0
2014-Oct-24 21:31N 51°53' E 004°24'0 0.0
2014-Oct-24 20:31N 51°53' E 004°24'0 0.0
2014-Oct-24 19:31N 51°53' E 004°24'0 0.0
2014-Oct-24 18:31N 51°53' E 004°24'0 0.0
2014-Oct-24 17:31N 51°53' E 004°24'0 0.0
2014-Oct-24 16:31N 51°53' E 004°24'0 0.0
2014-Oct-24 15:31N 51°53' E 004°24'0 0.0
2014-Oct-24 14:31N 51°53' E 004°24'0 0.0
2014-Oct-24 13:31N 51°53' E 004°24'0 0.0
2014-Oct-24 12:31N 51°53' E 004°24'1 1.3
2014-Oct-24 11:34N 51°54' E 004°23'7 7.1
2014-Oct-24 10:33N 51°56' E 004°12'10 9.9
2014-Oct-24 09:33N 52°00' E 003°57'10 9.5
2014-Oct-24 08:33N 51°58' E 003°42'1413.8
2014-Oct-24 07:33N 51°55' E 003°20'4113.8
2014-Oct-24 04:33N 51°34' E 002°22'1514.8
2014-Oct-24 03:33N 51°22' E 002°09'1514.8
2014-Oct-24 02:33N 51°11' E 001°54'1919.0
2014-Oct-24 01:34N 50°58' E 001°32'1918.6
2014-Oct-24 00:33N 50°41' E 001°17'1917.4
2014-Oct-23 23:29N 50°30' E 000°54'1617.7
2014-Oct-23 22:33N 50°27' E 000°29'33616.8
2014-Oct-23 02:33N 47°23' W 006°40'46917.3
2014-Oct-21 23:22N 39°55' W 009°51'1518.1
2014-Oct-21 22:33N 39°40' W 009°51'1818.0
2014-Oct-21 21:32N 39°22' W 009°52'1818.2
2014-Oct-21 20:34N 39°04' W 009°52'1818.1
2014-Oct-21 19:33N 38°46' W 009°52'1818.0
2014-Oct-21 18:33N 38°28' W 009°51'1818.2
2014-Oct-21 17:33N 38°10' W 009°51'1817.6
2014-Oct-21 16:33N 37°53' W 009°45'1818.4
2014-Oct-21 15:33N 37°37' W 009°34'1818.0
2014-Oct-21 14:33N 37°19' W 009°28'1817.8
2014-Oct-21 13:33N 37°02' W 009°22'1716.9
2014-Oct-21 12:33N 36°47' W 009°12'1917.4
2014-Oct-21 11:28N 36°40' W 008°51'1617.7
2014-Oct-21 10:33N 36°34' W 008°32'1817.6
2014-Oct-21 09:33N 36°28' W 008°11'1717.2
2014-Oct-21 08:33N 36°23' W 007°51'1717.3
2014-Oct-21 07:33N 36°18' W 007°30'10217.1
2014-Oct-21 01:33N 36°01' W 005°25'7 2.3
2014-Oct-20 22:26N 36°08' W 005°25'0 0.0
2014-Oct-20 21:32N 36°08' W 005°25'0 0.0
2014-Oct-20 18:05N 36°08' W 005°25'1 1.8
2014-Oct-20 17:33N 36°08' W 005°24'5 4.8
2014-Oct-20 16:34N 36°04' W 005°22'1110.7
2014-Oct-20 15:33N 35°57' W 005°32'  

Dump ship's entire track history